sensor_id;sensor_type;location;lat;lon;timestamp;P1;durP1;ratioP1;P2;durP2;ratioP2
45316;SDS011;31053;55.870;37.592;2022-08-06T00:01:39;18.42;;;9.50;;
45316;SDS011;31053;55.870;37.592;2022-08-06T00:04:44;15.15;;;9.10;;
45316;SDS011;31053;55.870;37.592;2022-08-06T00:07:48;16.83;;;7.80;;
45316;SDS011;31053;55.870;37.592;2022-08-06T00:10:53;14.82;;;11.20;;
45316;SDS011;31053;55.870;37.592;2022-08-06T00:13:57;18.52;;;8.32;;
45316;SDS011;31053;55.870;37.592;2022-08-06T00:17:02;12.10;;;8.35;;
45316;SDS011;31053;55.870;37.592;2022-08-06T00:20:08;13.35;;;8.55;;
45316;SDS011;31053;55.870;37.592;2022-08-06T00:23:13;11.18;;;8.60;;
45316;SDS011;31053;55.870;37.592;2022-08-06T00:26:18;12.20;;;7.97;;
45316;SDS011;31053;55.870;37.592;2022-08-06T00:29:23;12.77;;;7.78;;
45316;SDS011;31053;55.870;37.592;2022-08-06T00:32:30;14.48;;;8.73;;
45316;SDS011;31053;55.870;37.592;2022-08-06T00:35:35;17.10;;;8.30;;
45316;SDS011;31053;55.870;37.592;2022-08-06T00:38:39;19.73;;;9.45;;
45316;SDS011;31053;55.870;37.592;2022-08-06T00:41:44;12.98;;;8.73;;
45316;SDS011;31053;55.870;37.592;2022-08-06T00:44:49;15.80;;;8.07;;
45316;SDS011;31053;55.870;37.592;2022-08-06T00:47:53;12.70;;;8.48;;
45316;SDS011;31053;55.870;37.592;2022-08-06T00:50:57;10.23;;;7.50;;
45316;SDS011;31053;55.870;37.592;2022-08-06T00:54:02;11.30;;;8.57;;
45316;SDS011;31053;55.870;37.592;2022-08-06T00:57:06;14.05;;;8.25;;
45316;SDS011;31053;55.870;37.592;2022-08-06T01:00:11;14.40;;;8.93;;
45316;SDS011;31053;55.870;37.592;2022-08-06T01:03:16;11.57;;;9.00;;
45316;SDS011;31053;55.870;37.592;2022-08-06T01:06:20;17.05;;;8.52;;
45316;SDS011;31053;55.870;37.592;2022-08-06T01:09:25;16.60;;;8.77;;
45316;SDS011;31053;55.870;37.592;2022-08-06T01:12:30;19.70;;;9.20;;
45316;SDS011;31053;55.870;37.592;2022-08-06T01:15:36;13.82;;;9.15;;
45316;SDS011;31053;55.870;37.592;2022-08-06T01:18:45;16.77;;;8.23;;
45316;SDS011;31053;55.870;37.592;2022-08-06T01:22:10;13.75;;;8.48;;
45316;SDS011;31053;55.870;37.592;2022-08-06T01:32:29;13.68;;;8.32;;
45316;SDS011;31053;55.870;37.592;2022-08-06T01:35:29;18.23;;;8.80;;
45316;SDS011;31053;55.870;37.592;2022-08-06T01:38:37;18.20;;;8.85;;
45316;SDS011;31053;55.870;37.592;2022-08-06T01:41:45;18.50;;;10.38;;
45316;SDS011;31053;55.870;37.592;2022-08-06T01:44:50;24.88;;;9.48;;
45316;SDS011;31053;55.870;37.592;2022-08-06T01:47:59;16.23;;;8.30;;
45316;SDS011;31053;55.870;37.592;2022-08-06T01:51:07;13.93;;;7.97;;
45316;SDS011;31053;55.870;37.592;2022-08-06T01:54:12;18.80;;;9.75;;
45316;SDS011;31053;55.870;37.592;2022-08-06T01:57:17;15.70;;;10.30;;
45316;SDS011;31053;55.870;37.592;2022-08-06T02:00:23;16.15;;;9.25;;
45316;SDS011;31053;55.870;37.592;2022-08-06T02:03:30;20.83;;;11.07;;
45316;SDS011;31053;55.870;37.592;2022-08-06T02:06:39;21.75;;;9.73;;
45316;SDS011;31053;55.870;37.592;2022-08-06T02:09:46;14.75;;;8.43;;
45316;SDS011;31053;55.870;37.592;2022-08-06T02:12:52;17.67;;;8.53;;
45316;SDS011;31053;55.870;37.592;2022-08-06T02:15:57;15.93;;;9.73;;
45316;SDS011;31053;55.870;37.592;2022-08-06T02:19:04;20.97;;;9.90;;
45316;SDS011;31053;55.870;37.592;2022-08-06T02:22:10;11.82;;;8.25;;
45316;SDS011;31053;55.870;37.592;2022-08-06T02:25:14;16.95;;;9.48;;
45316;SDS011;31053;55.870;37.592;2022-08-06T02:28:20;17.13;;;10.30;;
45316;SDS011;31053;55.870;37.592;2022-08-06T02:31:26;15.55;;;10.00;;
45316;SDS011;31053;55.870;37.592;2022-08-06T02:34:31;17.13;;;9.55;;
45316;SDS011;31053;55.870;37.592;2022-08-06T02:37:37;17.95;;;9.68;;
45316;SDS011;31053;55.870;37.592;2022-08-06T02:40:46;13.23;;;9.40;;
45316;SDS011;31053;55.870;37.592;2022-08-06T02:43:55;18.50;;;10.63;;
45316;SDS011;31053;55.870;37.592;2022-08-06T02:50:33;14.38;;;8.70;;
45316;SDS011;31053;55.870;37.592;2022-08-06T02:53:42;13.23;;;8.88;;
45316;SDS011;31053;55.870;37.592;2022-08-06T02:56:51;15.80;;;9.13;;
45316;SDS011;31053;55.870;37.592;2022-08-06T03:00:02;20.33;;;9.77;;
45316;SDS011;31053;55.870;37.592;2022-08-06T03:03:09;18.33;;;9.77;;
45316;SDS011;31053;55.870;37.592;2022-08-06T03:06:15;16.40;;;9.70;;
45316;SDS011;31053;55.870;37.592;2022-08-06T03:09:20;17.88;;;11.35;;
45316;SDS011;31053;55.870;37.592;2022-08-06T03:12:26;17.42;;;10.75;;
45316;SDS011;31053;55.870;37.592;2022-08-06T03:15:32;18.33;;;9.77;;
45316;SDS011;31053;55.870;37.592;2022-08-06T03:18:38;16.88;;;9.68;;
45316;SDS011;31053;55.870;37.592;2022-08-06T03:21:46;18.35;;;10.70;;
45316;SDS011;31053;55.870;37.592;2022-08-06T03:24:51;19.38;;;10.77;;
45316;SDS011;31053;55.870;37.592;2022-08-06T03:27:56;15.75;;;10.48;;
45316;SDS011;31053;55.870;37.592;2022-08-06T03:31:02;12.90;;;9.63;;
45316;SDS011;31053;55.870;37.592;2022-08-06T03:34:07;12.98;;;9.10;;
45316;SDS011;31053;55.870;37.592;2022-08-06T03:37:13;15.20;;;9.70;;
45316;SDS011;31053;55.870;37.592;2022-08-06T03:40:19;15.05;;;10.00;;
45316;SDS011;31053;55.870;37.592;2022-08-06T03:43:24;13.82;;;9.93;;
45316;SDS011;31053;55.870;37.592;2022-08-06T03:46:43;18.73;;;10.85;;
45316;SDS011;31053;55.870;37.592;2022-08-06T03:50:04;15.15;;;11.13;;
45316;SDS011;31053;55.870;37.592;2022-08-06T03:53:20;18.40;;;10.32;;
45316;SDS011;31053;55.870;37.592;2022-08-06T03:56:28;14.65;;;10.25;;
45316;SDS011;31053;55.870;37.592;2022-08-06T03:59:33;18.33;;;10.88;;
45316;SDS011;31053;55.870;37.592;2022-08-06T04:02:39;20.20;;;12.82;;
45316;SDS011;31053;55.870;37.592;2022-08-06T04:05:47;13.38;;;10.48;;
45316;SDS011;31053;55.870;37.592;2022-08-06T04:08:52;17.27;;;10.63;;
45316;SDS011;31053;55.870;37.592;2022-08-06T04:11:58;22.42;;;12.73;;
45316;SDS011;31053;55.870;37.592;2022-08-06T04:15:04;18.00;;;10.63;;
45316;SDS011;31053;55.870;37.592;2022-08-06T04:18:14;20.30;;;12.20;;
45316;SDS011;31053;55.870;37.592;2022-08-06T04:21:21;16.33;;;11.65;;
45316;SDS011;31053;55.870;37.592;2022-08-06T04:24:27;22.05;;;11.75;;
45316;SDS011;31053;55.870;37.592;2022-08-06T04:27:32;18.30;;;10.82;;
45316;SDS011;31053;55.870;37.592;2022-08-06T04:30:42;16.52;;;11.05;;
45316;SDS011;31053;55.870;37.592;2022-08-06T04:33:47;20.35;;;10.27;;
45316;SDS011;31053;55.870;37.592;2022-08-06T04:36:52;18.20;;;11.02;;
45316;SDS011;31053;55.870;37.592;2022-08-06T04:39:57;18.08;;;10.43;;
45316;SDS011;31053;55.870;37.592;2022-08-06T04:43:04;16.80;;;10.25;;
45316;SDS011;31053;55.870;37.592;2022-08-06T04:46:10;15.80;;;10.48;;
45316;SDS011;31053;55.870;37.592;2022-08-06T04:49:15;24.58;;;11.90;;
45316;SDS011;31053;55.870;37.592;2022-08-06T04:52:22;23.75;;;12.45;;
45316;SDS011;31053;55.870;37.592;2022-08-06T04:55:28;18.42;;;10.82;;
45316;SDS011;31053;55.870;37.592;2022-08-06T04:58:33;14.63;;;9.45;;
45316;SDS011;31053;55.870;37.592;2022-08-06T05:01:38;13.30;;;10.38;;
45316;SDS011;31053;55.870;37.592;2022-08-06T05:04:43;13.68;;;10.52;;
45316;SDS011;31053;55.870;37.592;2022-08-06T05:07:49;18.13;;;9.88;;
45316;SDS011;31053;55.870;37.592;2022-08-06T05:10:58;11.90;;;9.30;;
45316;SDS011;31053;55.870;37.592;2022-08-06T05:14:08;23.67;;;12.50;;
45316;SDS011;31053;55.870;37.592;2022-08-06T05:17:15;18.38;;;12.15;;
45316;SDS011;31053;55.870;37.592;2022-08-06T05:20:21;14.70;;;10.98;;
45316;SDS011;31053;55.870;37.592;2022-08-06T05:23:27;24.77;;;11.30;;
45316;SDS011;31053;55.870;37.592;2022-08-06T05:26:51;12.35;;;9.38;;
45316;SDS011;31053;55.870;37.592;2022-08-06T05:29:56;26.73;;;13.02;;
45316;SDS011;31053;55.870;37.592;2022-08-06T05:33:00;14.13;;;11.13;;
45316;SDS011;31053;55.870;37.592;2022-08-06T05:42:19;14.55;;;10.23;;
45316;SDS011;31053;55.870;37.592;2022-08-06T05:45:23;15.43;;;11.65;;
45316;SDS011;31053;55.870;37.592;2022-08-06T05:48:28;20.30;;;10.50;;
45316;SDS011;31053;55.870;37.592;2022-08-06T05:54:54;21.25;;;10.75;;
45316;SDS011;31053;55.870;37.592;2022-08-06T05:58:02;19.42;;;9.52;;
45316;SDS011;31053;55.870;37.592;2022-08-06T06:01:08;17.88;;;11.30;;
45316;SDS011;31053;55.870;37.592;2022-08-06T06:04:13;16.02;;;9.57;;
45316;SDS011;31053;55.870;37.592;2022-08-06T06:07:19;16.15;;;9.57;;
45316;SDS011;31053;55.870;37.592;2022-08-06T06:10:23;18.23;;;9.50;;
45316;SDS011;31053;55.870;37.592;2022-08-06T06:13:28;12.95;;;9.48;;
45316;SDS011;31053;55.870;37.592;2022-08-06T06:16:36;15.18;;;7.90;;
45316;SDS011;31053;55.870;37.592;2022-08-06T06:20:18;19.52;;;8.07;;
45316;SDS011;31053;55.870;37.592;2022-08-06T06:23:42;10.50;;;7.13;;
45316;SDS011;31053;55.870;37.592;2022-08-06T06:30:06;18.30;;;7.82;;
45316;SDS011;31053;55.870;37.592;2022-08-06T06:36:20;19.40;;;7.65;;
45316;SDS011;31053;55.870;37.592;2022-08-06T06:39:33;12.98;;;7.53;;
45316;SDS011;31053;55.870;37.592;2022-08-06T06:42:59;11.75;;;6.97;;
45316;SDS011;31053;55.870;37.592;2022-08-06T06:49:33;9.02;;;5.72;;
45316;SDS011;31053;55.870;37.592;2022-08-06T06:52:45;9.30;;;6.32;;
45316;SDS011;31053;55.870;37.592;2022-08-06T07:00:39;8.45;;;4.57;;
45316;SDS011;31053;55.870;37.592;2022-08-06T07:03:45;8.63;;;6.10;;
45316;SDS011;31053;55.870;37.592;2022-08-06T07:06:50;12.82;;;5.78;;
45316;SDS011;31053;55.870;37.592;2022-08-06T07:09:58;12.82;;;7.43;;
45316;SDS011;31053;55.870;37.592;2022-08-06T07:13:03;15.93;;;7.07;;
45316;SDS011;31053;55.870;37.592;2022-08-06T07:16:08;11.20;;;6.90;;
45316;SDS011;31053;55.870;37.592;2022-08-06T07:19:15;7.13;;;5.40;;
45316;SDS011;31053;55.870;37.592;2022-08-06T07:22:21;11.45;;;6.03;;
45316;SDS011;31053;55.870;37.592;2022-08-06T07:25:27;9.93;;;6.47;;
45316;SDS011;31053;55.870;37.592;2022-08-06T07:28:31;6.45;;;5.60;;
45316;SDS011;31053;55.870;37.592;2022-08-06T07:31:37;12.48;;;5.90;;
45316;SDS011;31053;55.870;37.592;2022-08-06T07:34:42;11.45;;;5.43;;
45316;SDS011;31053;55.870;37.592;2022-08-06T07:37:51;8.02;;;5.50;;
45316;SDS011;31053;55.870;37.592;2022-08-06T07:40:59;8.75;;;4.75;;
45316;SDS011;31053;55.870;37.592;2022-08-06T07:44:06;9.93;;;5.60;;
45316;SDS011;31053;55.870;37.592;2022-08-06T07:47:12;11.40;;;4.95;;
45316;SDS011;31053;55.870;37.592;2022-08-06T07:50:20;7.80;;;4.88;;
45316;SDS011;31053;55.870;37.592;2022-08-06T07:53:25;8.90;;;5.20;;
45316;SDS011;31053;55.870;37.592;2022-08-06T07:56:30;9.30;;;5.23;;
45316;SDS011;31053;55.870;37.592;2022-08-06T07:59:35;8.35;;;5.05;;
45316;SDS011;31053;55.870;37.592;2022-08-06T08:02:40;11.68;;;5.68;;
45316;SDS011;31053;55.870;37.592;2022-08-06T08:05:45;10.05;;;5.40;;
45316;SDS011;31053;55.870;37.592;2022-08-06T08:09:13;9.57;;;5.75;;
45316;SDS011;31053;55.870;37.592;2022-08-06T08:12:19;18.30;;;5.50;;
45316;SDS011;31053;55.870;37.592;2022-08-06T08:15:26;8.38;;;4.47;;
45316;SDS011;31053;55.870;37.592;2022-08-06T08:18:31;11.00;;;5.25;;
45316;SDS011;31053;55.870;37.592;2022-08-06T08:21:36;11.63;;;5.22;;
45316;SDS011;31053;55.870;37.592;2022-08-06T08:24:41;7.88;;;4.13;;
45316;SDS011;31053;55.870;37.592;2022-08-06T08:27:49;9.88;;;4.03;;
45316;SDS011;31053;55.870;37.592;2022-08-06T08:30:56;6.78;;;4.20;;
45316;SDS011;31053;55.870;37.592;2022-08-06T08:34:03;11.73;;;3.83;;
45316;SDS011;31053;55.870;37.592;2022-08-06T08:37:08;5.93;;;4.65;;
45316;SDS011;31053;55.870;37.592;2022-08-06T08:40:13;7.20;;;4.05;;
45316;SDS011;31053;55.870;37.592;2022-08-06T08:43:37;14.48;;;4.78;;
45316;SDS011;31053;55.870;37.592;2022-08-06T08:46:45;9.50;;;4.15;;
45316;SDS011;31053;55.870;37.592;2022-08-06T08:49:52;8.70;;;6.43;;
45316;SDS011;31053;55.870;37.592;2022-08-06T08:53:03;8.68;;;4.80;;
45316;SDS011;31053;55.870;37.592;2022-08-06T08:56:14;8.15;;;5.95;;
45316;SDS011;31053;55.870;37.592;2022-08-06T08:59:20;16.45;;;5.47;;
45316;SDS011;31053;55.870;37.592;2022-08-06T09:02:25;11.35;;;5.40;;
45316;SDS011;31053;55.870;37.592;2022-08-06T09:05:31;9.55;;;4.85;;
45316;SDS011;31053;55.870;37.592;2022-08-06T09:08:35;9.57;;;5.18;;
45316;SDS011;31053;55.870;37.592;2022-08-06T09:11:43;9.35;;;5.32;;
45316;SDS011;31053;55.870;37.592;2022-08-06T09:14:48;11.30;;;4.65;;
45316;SDS011;31053;55.870;37.592;2022-08-06T09:17:52;6.00;;;3.80;;
45316;SDS011;31053;55.870;37.592;2022-08-06T09:20:58;12.27;;;4.88;;
45316;SDS011;31053;55.870;37.592;2022-08-06T09:24:04;7.25;;;3.97;;
45316;SDS011;31053;55.870;37.592;2022-08-06T09:27:13;10.27;;;5.68;;
45316;SDS011;31053;55.870;37.592;2022-08-06T09:30:18;17.90;;;4.65;;
45316;SDS011;31053;55.870;37.592;2022-08-06T09:33:23;10.07;;;4.10;;
45316;SDS011;31053;55.870;37.592;2022-08-06T09:36:28;6.70;;;3.38;;
45316;SDS011;31053;55.870;37.592;2022-08-06T09:39:45;4.57;;;3.65;;
45316;SDS011;31053;55.870;37.592;2022-08-06T09:42:50;5.47;;;4.28;;
45316;SDS011;31053;55.870;37.592;2022-08-06T09:45:56;6.88;;;3.60;;
45316;SDS011;31053;55.870;37.592;2022-08-06T09:49:01;5.97;;;3.72;;
45316;SDS011;31053;55.870;37.592;2022-08-06T09:52:14;10.88;;;4.45;;
45316;SDS011;31053;55.870;37.592;2022-08-06T09:55:30;5.65;;;3.53;;
45316;SDS011;31053;55.870;37.592;2022-08-06T09:58:37;7.55;;;3.85;;
45316;SDS011;31053;55.870;37.592;2022-08-06T10:01:43;5.28;;;2.95;;
45316;SDS011;31053;55.870;37.592;2022-08-06T10:04:49;5.82;;;2.83;;
45316;SDS011;31053;55.870;37.592;2022-08-06T10:08:13;5.20;;;3.58;;
45316;SDS011;31053;55.870;37.592;2022-08-06T10:11:36;7.70;;;3.72;;
45316;SDS011;31053;55.870;37.592;2022-08-06T10:14:45;3.83;;;3.42;;
45316;SDS011;31053;55.870;37.592;2022-08-06T10:17:49;7.18;;;3.28;;
45316;SDS011;31053;55.870;37.592;2022-08-06T10:21:07;4.53;;;3.37;;
45316;SDS011;31053;55.870;37.592;2022-08-06T10:24:17;4.68;;;3.22;;
45316;SDS011;31053;55.870;37.592;2022-08-06T10:27:28;8.60;;;4.32;;
45316;SDS011;31053;55.870;37.592;2022-08-06T10:30:34;3.85;;;3.25;;
45316;SDS011;31053;55.870;37.592;2022-08-06T10:34:06;5.95;;;3.78;;
45316;SDS011;31053;55.870;37.592;2022-08-06T10:37:18;12.63;;;3.80;;
45316;SDS011;31053;55.870;37.592;2022-08-06T10:40:23;7.15;;;4.43;;
45316;SDS011;31053;55.870;37.592;2022-08-06T10:43:30;10.45;;;4.28;;
45316;SDS011;31053;55.870;37.592;2022-08-06T10:46:39;10.02;;;4.38;;
45316;SDS011;31053;55.870;37.592;2022-08-06T10:49:44;14.52;;;4.10;;
45316;SDS011;31053;55.870;37.592;2022-08-06T10:52:49;9.60;;;4.32;;
45316;SDS011;31053;55.870;37.592;2022-08-06T10:55:54;7.00;;;4.10;;
45316;SDS011;31053;55.870;37.592;2022-08-06T10:59:00;8.35;;;3.15;;
45316;SDS011;31053;55.870;37.592;2022-08-06T11:05:36;12.65;;;3.90;;
45316;SDS011;31053;55.870;37.592;2022-08-06T11:12:50;9.20;;;3.42;;
45316;SDS011;31053;55.870;37.592;2022-08-06T11:15:57;6.22;;;3.08;;
45316;SDS011;31053;55.870;37.592;2022-08-06T11:19:05;6.65;;;3.95;;
45316;SDS011;31053;55.870;37.592;2022-08-06T11:25:45;7.00;;;4.30;;
45316;SDS011;31053;55.870;37.592;2022-08-06T11:28:58;9.20;;;4.15;;
45316;SDS011;31053;55.870;37.592;2022-08-06T11:32:03;11.63;;;4.35;;
45316;SDS011;31053;55.870;37.592;2022-08-06T11:35:49;9.63;;;4.45;;
45316;SDS011;31053;55.870;37.592;2022-08-06T11:41:59;7.35;;;3.58;;
45316;SDS011;31053;55.870;37.592;2022-08-06T11:45:05;6.13;;;3.22;;
45316;SDS011;31053;55.870;37.592;2022-08-06T11:48:09;8.02;;;5.70;;
45316;SDS011;31053;55.870;37.592;2022-08-06T11:57:48;8.05;;;4.75;;
45316;SDS011;31053;55.870;37.592;2022-08-06T12:00:59;5.57;;;3.67;;
45316;SDS011;31053;55.870;37.592;2022-08-06T12:04:04;7.32;;;4.13;;
45316;SDS011;31053;55.870;37.592;2022-08-06T12:07:22;10.88;;;5.30;;
45316;SDS011;31053;55.870;37.592;2022-08-06T12:10:34;7.32;;;3.75;;
45316;SDS011;31053;55.870;37.592;2022-08-06T12:13:38;8.25;;;4.53;;
45316;SDS011;31053;55.870;37.592;2022-08-06T12:16:43;10.73;;;5.55;;
45316;SDS011;31053;55.870;37.592;2022-08-06T12:19:49;7.25;;;3.88;;
45316;SDS011;31053;55.870;37.592;2022-08-06T12:22:54;4.97;;;3.45;;
45316;SDS011;31053;55.870;37.592;2022-08-06T12:25:59;8.70;;;6.13;;
45316;SDS011;31053;55.870;37.592;2022-08-06T12:29:04;10.98;;;4.25;;
45316;SDS011;31053;55.870;37.592;2022-08-06T12:32:19;4.73;;;3.20;;
45316;SDS011;31053;55.870;37.592;2022-08-06T12:35:32;6.95;;;2.55;;
45316;SDS011;31053;55.870;37.592;2022-08-06T12:38:36;7.15;;;2.67;;
45316;SDS011;31053;55.870;37.592;2022-08-06T12:41:41;18.98;;;8.68;;
45316;SDS011;31053;55.870;37.592;2022-08-06T12:44:45;4.35;;;3.67;;
45316;SDS011;31053;55.870;37.592;2022-08-06T12:51:23;9.73;;;3.50;;
45316;SDS011;31053;55.870;37.592;2022-08-06T12:54:28;6.15;;;3.30;;
45316;SDS011;31053;55.870;37.592;2022-08-06T12:57:34;6.07;;;2.88;;
45316;SDS011;31053;55.870;37.592;2022-08-06T13:00:38;8.73;;;3.97;;
45316;SDS011;31053;55.870;37.592;2022-08-06T13:03:45;5.10;;;3.28;;
45316;SDS011;31053;55.870;37.592;2022-08-06T13:06:50;6.22;;;3.15;;
45316;SDS011;31053;55.870;37.592;2022-08-06T13:09:55;10.68;;;3.85;;
45316;SDS011;31053;55.870;37.592;2022-08-06T13:13:03;8.73;;;4.05;;
45316;SDS011;31053;55.870;37.592;2022-08-06T13:16:10;6.13;;;3.83;;
45316;SDS011;31053;55.870;37.592;2022-08-06T13:19:17;9.02;;;3.85;;
45316;SDS011;31053;55.870;37.592;2022-08-06T13:22:22;7.30;;;3.70;;
45316;SDS011;31053;55.870;37.592;2022-08-06T13:25:27;4.00;;;2.60;;
45316;SDS011;31053;55.870;37.592;2022-08-06T13:28:32;5.78;;;3.03;;
45316;SDS011;31053;55.870;37.592;2022-08-06T13:35:16;9.07;;;4.70;;
45316;SDS011;31053;55.870;37.592;2022-08-06T13:38:30;9.75;;;4.45;;
45316;SDS011;31053;55.870;37.592;2022-08-06T13:41:37;9.48;;;3.90;;
45316;SDS011;31053;55.870;37.592;2022-08-06T13:44:43;7.50;;;4.35;;
45316;SDS011;31053;55.870;37.592;2022-08-06T13:47:49;9.55;;;4.10;;
45316;SDS011;31053;55.870;37.592;2022-08-06T13:50:56;8.27;;;3.53;;
45316;SDS011;31053;55.870;37.592;2022-08-06T13:54:00;5.28;;;3.75;;
45316;SDS011;31053;55.870;37.592;2022-08-06T13:57:07;4.45;;;2.80;;
45316;SDS011;31053;55.870;37.592;2022-08-06T14:00:11;9.05;;;4.05;;
45316;SDS011;31053;55.870;37.592;2022-08-06T14:03:16;6.93;;;3.58;;
45316;SDS011;31053;55.870;37.592;2022-08-06T14:06:21;4.75;;;2.75;;
45316;SDS011;31053;55.870;37.592;2022-08-06T14:09:27;7.03;;;3.97;;
45316;SDS011;31053;55.870;37.592;2022-08-06T14:12:33;4.85;;;3.83;;
45316;SDS011;31053;55.870;37.592;2022-08-06T14:18:44;10.52;;;3.65;;
45316;SDS011;31053;55.870;37.592;2022-08-06T14:21:48;11.18;;;3.72;;
45316;SDS011;31053;55.870;37.592;2022-08-06T14:24:53;5.20;;;3.60;;
45316;SDS011;31053;55.870;37.592;2022-08-06T14:27:58;5.20;;;2.95;;
45316;SDS011;31053;55.870;37.592;2022-08-06T14:31:03;10.05;;;3.55;;
45316;SDS011;31053;55.870;37.592;2022-08-06T14:34:08;4.38;;;2.95;;
45316;SDS011;31053;55.870;37.592;2022-08-06T14:37:12;5.07;;;2.65;;
45316;SDS011;31053;55.870;37.592;2022-08-06T14:40:18;7.97;;;3.90;;
45316;SDS011;31053;55.870;37.592;2022-08-06T14:43:42;15.30;;;9.15;;
45316;SDS011;31053;55.870;37.592;2022-08-06T14:47:05;9.88;;;4.47;;
45316;SDS011;31053;55.870;37.592;2022-08-06T14:50:12;4.35;;;3.28;;
45316;SDS011;31053;55.870;37.592;2022-08-06T14:53:16;9.25;;;4.00;;
45316;SDS011;31053;55.870;37.592;2022-08-06T14:56:20;7.70;;;3.55;;
45316;SDS011;31053;55.870;37.592;2022-08-06T14:59:28;6.72;;;4.43;;
45316;SDS011;31053;55.870;37.592;2022-08-06T15:02:33;12.23;;;4.70;;
45316;SDS011;31053;55.870;37.592;2022-08-06T15:05:37;5.10;;;3.70;;
45316;SDS011;31053;55.870;37.592;2022-08-06T15:08:42;10.23;;;4.13;;
45316;SDS011;31053;55.870;37.592;2022-08-06T15:11:47;7.50;;;3.28;;
45316;SDS011;31053;55.870;37.592;2022-08-06T15:14:52;7.60;;;3.38;;
45316;SDS011;31053;55.870;37.592;2022-08-06T15:17:57;11.70;;;4.05;;
45316;SDS011;31053;55.870;37.592;2022-08-06T15:21:02;15.13;;;3.72;;
45316;SDS011;31053;55.870;37.592;2022-08-06T15:24:07;12.37;;;3.43;;
45316;SDS011;31053;55.870;37.592;2022-08-06T15:27:12;10.32;;;3.55;;
45316;SDS011;31053;55.870;37.592;2022-08-06T15:30:16;13.45;;;6.05;;
45316;SDS011;31053;55.870;37.592;2022-08-06T15:33:22;6.68;;;4.88;;
45316;SDS011;31053;55.870;37.592;2022-08-06T15:36:29;14.10;;;8.45;;
45316;SDS011;31053;55.870;37.592;2022-08-06T15:39:34;10.43;;;4.32;;
45316;SDS011;31053;55.870;37.592;2022-08-06T15:42:39;5.72;;;4.20;;
45316;SDS011;31053;55.870;37.592;2022-08-06T15:45:44;9.48;;;4.63;;
45316;SDS011;31053;55.870;37.592;2022-08-06T15:48:48;9.13;;;5.07;;
45316;SDS011;31053;55.870;37.592;2022-08-06T15:51:52;11.35;;;4.25;;
45316;SDS011;31053;55.870;37.592;2022-08-06T15:54:57;13.88;;;9.07;;
45316;SDS011;31053;55.870;37.592;2022-08-06T15:58:01;12.10;;;5.68;;
45316;SDS011;31053;55.870;37.592;2022-08-06T16:01:06;9.27;;;5.07;;
45316;SDS011;31053;55.870;37.592;2022-08-06T16:04:12;6.30;;;4.10;;
45316;SDS011;31053;55.870;37.592;2022-08-06T16:07:17;8.23;;;4.10;;
45316;SDS011;31053;55.870;37.592;2022-08-06T16:10:21;8.50;;;5.20;;
45316;SDS011;31053;55.870;37.592;2022-08-06T16:13:27;10.20;;;4.40;;
45316;SDS011;31053;55.870;37.592;2022-08-06T16:16:31;7.47;;;4.18;;
45316;SDS011;31053;55.870;37.592;2022-08-06T16:19:36;10.32;;;4.97;;
45316;SDS011;31053;55.870;37.592;2022-08-06T16:22:44;11.25;;;6.20;;
45316;SDS011;31053;55.870;37.592;2022-08-06T16:25:48;6.18;;;4.07;;
45316;SDS011;31053;55.870;37.592;2022-08-06T16:28:53;5.00;;;4.03;;
45316;SDS011;31053;55.870;37.592;2022-08-06T16:31:57;8.95;;;4.95;;
45316;SDS011;31053;55.870;37.592;2022-08-06T16:35:03;8.73;;;3.78;;
45316;SDS011;31053;55.870;37.592;2022-08-06T16:38:11;10.00;;;5.30;;
45316;SDS011;31053;55.870;37.592;2022-08-06T16:41:17;8.32;;;5.30;;
45316;SDS011;31053;55.870;37.592;2022-08-06T16:44:22;17.45;;;5.32;;
45316;SDS011;31053;55.870;37.592;2022-08-06T16:47:26;16.95;;;8.88;;
45316;SDS011;31053;55.870;37.592;2022-08-06T16:50:32;19.02;;;9.25;;
45316;SDS011;31053;55.870;37.592;2022-08-06T16:53:41;13.48;;;5.03;;
45316;SDS011;31053;55.870;37.592;2022-08-06T16:56:47;15.98;;;8.05;;
45316;SDS011;31053;55.870;37.592;2022-08-06T17:00:00;12.68;;;5.15;;
45316;SDS011;31053;55.870;37.592;2022-08-06T17:06:14;8.30;;;4.97;;
45316;SDS011;31053;55.870;37.592;2022-08-06T17:09:22;15.13;;;7.68;;
45316;SDS011;31053;55.870;37.592;2022-08-06T17:12:27;18.33;;;8.10;;
45316;SDS011;31053;55.870;37.592;2022-08-06T17:15:32;14.30;;;6.47;;
45316;SDS011;31053;55.870;37.592;2022-08-06T17:18:40;11.00;;;4.50;;
45316;SDS011;31053;55.870;37.592;2022-08-06T17:21:44;14.07;;;4.13;;
45316;SDS011;31053;55.870;37.592;2022-08-06T17:24:49;9.30;;;3.60;;
45316;SDS011;31053;55.870;37.592;2022-08-06T17:27:54;7.72;;;3.95;;
45316;SDS011;31053;55.870;37.592;2022-08-06T17:30:59;7.85;;;3.55;;
45316;SDS011;31053;55.870;37.592;2022-08-06T17:34:05;13.43;;;4.27;;
45316;SDS011;31053;55.870;37.592;2022-08-06T17:37:09;11.80;;;4.20;;
45316;SDS011;31053;55.870;37.592;2022-08-06T17:40:16;6.53;;;3.10;;
45316;SDS011;31053;55.870;37.592;2022-08-06T17:43:24;4.78;;;2.63;;
45316;SDS011;31053;55.870;37.592;2022-08-06T17:46:29;10.80;;;3.72;;
45316;SDS011;31053;55.870;37.592;2022-08-06T17:52:42;10.93;;;4.45;;
45316;SDS011;31053;55.870;37.592;2022-08-06T17:55:48;11.45;;;5.88;;
45316;SDS011;31053;55.870;37.592;2022-08-06T17:58:52;12.80;;;5.28;;
45316;SDS011;31053;55.870;37.592;2022-08-06T18:01:57;11.98;;;3.95;;
45316;SDS011;31053;55.870;37.592;2022-08-06T18:05:02;6.35;;;4.07;;
45316;SDS011;31053;55.870;37.592;2022-08-06T18:11:41;12.10;;;3.33;;
45316;SDS011;31053;55.870;37.592;2022-08-06T18:14:47;15.65;;;4.88;;
45316;SDS011;31053;55.870;37.592;2022-08-06T18:17:55;10.60;;;4.53;;
45316;SDS011;31053;55.870;37.592;2022-08-06T18:21:08;12.63;;;5.88;;
45316;SDS011;31053;55.870;37.592;2022-08-06T18:24:19;7.20;;;4.55;;
45316;SDS011;31053;55.870;37.592;2022-08-06T18:27:28;16.90;;;8.27;;
45316;SDS011;31053;55.870;37.592;2022-08-06T18:30:38;13.00;;;5.07;;
45316;SDS011;31053;55.870;37.592;2022-08-06T18:33:43;18.98;;;5.55;;
45316;SDS011;31053;55.870;37.592;2022-08-06T18:36:47;10.38;;;5.95;;
45316;SDS011;31053;55.870;37.592;2022-08-06T18:39:52;6.97;;;3.72;;
45316;SDS011;31053;55.870;37.592;2022-08-06T18:42:59;13.02;;;5.05;;
45316;SDS011;31053;55.870;37.592;2022-08-06T18:46:07;4.85;;;3.25;;
45316;SDS011;31053;55.870;37.592;2022-08-06T18:49:13;12.80;;;5.07;;
45316;SDS011;31053;55.870;37.592;2022-08-06T18:52:38;16.80;;;7.65;;
45316;SDS011;31053;55.870;37.592;2022-08-06T18:55:51;15.02;;;10.55;;
45316;SDS011;31053;55.870;37.592;2022-08-06T18:58:56;17.33;;;8.60;;
45316;SDS011;31053;55.870;37.592;2022-08-06T19:02:00;11.05;;;6.25;;
45316;SDS011;31053;55.870;37.592;2022-08-06T19:05:05;17.13;;;7.05;;
45316;SDS011;31053;55.870;37.592;2022-08-06T19:08:14;16.27;;;8.15;;
45316;SDS011;31053;55.870;37.592;2022-08-06T19:11:19;8.18;;;6.00;;
45316;SDS011;31053;55.870;37.592;2022-08-06T19:14:24;9.52;;;5.65;;
45316;SDS011;31053;55.870;37.592;2022-08-06T19:17:31;17.92;;;5.28;;
45316;SDS011;31053;55.870;37.592;2022-08-06T19:20:37;9.85;;;3.78;;
45316;SDS011;31053;55.870;37.592;2022-08-06T19:23:41;17.05;;;7.38;;
45316;SDS011;31053;55.870;37.592;2022-08-06T19:27:01;7.90;;;4.57;;
45316;SDS011;31053;55.870;37.592;2022-08-06T19:30:07;8.63;;;4.20;;
45316;SDS011;31053;55.870;37.592;2022-08-06T19:33:12;18.15;;;9.20;;
45316;SDS011;31053;55.870;37.592;2022-08-06T19:36:17;13.23;;;7.32;;